createdAt,value
2018-09-22T00:06:21.000Z,21.18
2018-09-22T00:16:21.000Z,21.14
2018-09-22T00:26:21.000Z,21.12
2018-09-22T00:36:22.000Z,21.08
2018-09-22T00:46:21.000Z,21.04
2018-09-22T00:56:21.000Z,21.02
2018-09-22T01:06:21.000Z,20.98
2018-09-22T01:16:21.000Z,20.95
2018-09-22T01:26:21.000Z,20.93
2018-09-22T01:36:21.000Z,20.91
2018-09-22T01:46:21.000Z,20.88
2018-09-22T01:56:21.000Z,20.87
2018-09-22T02:06:21.000Z,20.84
2018-09-22T02:16:21.000Z,20.81
2018-09-22T02:26:21.000Z,20.79
2018-09-22T02:36:21.000Z,20.76
2018-09-22T02:56:21.000Z,20.7
2018-09-22T03:06:21.000Z,20.67
2018-09-22T03:16:21.000Z,20.65
2018-09-22T03:26:21.000Z,20.63
2018-09-22T03:36:21.000Z,20.6
2018-09-22T03:46:21.000Z,20.58
2018-09-22T03:56:21.000Z,20.56
2018-09-22T04:06:21.000Z,20.54
2018-09-22T04:16:21.000Z,20.53
2018-09-22T04:26:21.000Z,20.52
2018-09-22T04:36:21.000Z,20.51
2018-09-22T04:46:21.000Z,20.48
2018-09-22T04:56:21.000Z,20.46
2018-09-22T05:06:21.000Z,20.44
2018-09-22T05:16:21.000Z,20.43
2018-09-22T05:26:22.000Z,20.42
2018-09-22T05:36:22.000Z,20.41
2018-09-22T05:46:22.000Z,20.41
2018-09-22T05:56:22.000Z,20.4
2018-09-22T06:06:22.000Z,20.39
2018-09-22T06:16:22.000Z,20.38
2018-09-22T06:26:22.000Z,20.41
2018-09-22T06:36:22.000Z,20.41
2018-09-22T06:46:22.000Z,20.44
2018-09-22T06:56:22.000Z,20.44
2018-09-22T07:06:22.000Z,20.47
2018-09-22T07:16:22.000Z,20.5
2018-09-22T07:26:22.000Z,20.56
2018-09-22T07:36:22.000Z,20.59
2018-09-22T07:46:22.000Z,20.6
2018-09-22T07:56:22.000Z,20.68
2018-09-22T08:06:22.000Z,20.7
2018-09-22T08:16:22.000Z,20.8
2018-09-22T08:26:22.000Z,20.88
2018-09-22T08:36:22.000Z,20.96
2018-09-22T08:46:22.000Z,21.06
2018-09-22T08:56:22.000Z,21.16
2018-09-22T09:06:22.000Z,21.34
2018-09-22T09:16:22.000Z,21.34
2018-09-22T09:26:22.000Z,21.4
2018-09-22T09:36:22.000Z,21.47
2018-09-22T09:46:22.000Z,21.48
2018-09-22T09:56:22.000Z,21.5
2018-09-22T10:06:22.000Z,21.54
2018-09-22T10:16:22.000Z,21.78
2018-09-22T10:26:22.000Z,21.78
2018-09-22T10:36:22.000Z,21.92
2018-09-22T10:46:22.000Z,21.94
2018-09-22T10:56:22.000Z,21.9
2018-09-22T11:06:22.000Z,21.98
2018-09-22T11:16:23.000Z,22
2018-09-22T11:26:22.000Z,21.95
2018-09-22T11:36:22.000Z,21.96
2018-09-22T11:46:22.000Z,21.94
2018-09-22T11:56:22.000Z,22.01
2018-09-22T12:06:22.000Z,22.05
2018-09-22T12:16:22.000Z,22.05
2018-09-22T12:26:22.000Z,22.06
2018-09-22T12:36:22.000Z,22
2018-09-22T12:46:24.000Z,21.96
2018-09-22T12:56:22.000Z,21.97
2018-09-22T13:06:22.000Z,21.98
2018-09-22T13:16:22.000Z,21.96
2018-09-22T13:26:22.000Z,21.95
2018-09-22T13:36:22.000Z,21.96
2018-09-22T13:46:22.000Z,21.99
2018-09-22T13:56:23.000Z,21.99
2018-09-22T14:06:23.000Z,21.97
2018-09-22T14:16:24.000Z,21.99
2018-09-22T14:26:23.000Z,21.98
2018-09-22T14:36:23.000Z,21.96
2018-09-22T14:46:23.000Z,21.94
2018-09-22T14:56:23.000Z,21.9
2018-09-22T15:06:23.000Z,21.87
2018-09-22T15:16:23.000Z,21.82
2018-09-22T15:26:23.000Z,21.76
2018-09-22T15:36:23.000Z,21.75
2018-09-22T15:46:23.000Z,21.71
2018-09-22T15:56:23.000Z,21.64
2018-09-22T16:06:23.000Z,21.64
2018-09-22T16:16:23.000Z,21.64
2018-09-22T16:26:23.000Z,21.62
2018-09-22T16:36:23.000Z,21.67
2018-09-22T16:46:23.000Z,21.61
2018-09-22T16:56:23.000Z,21.56
2018-09-22T17:06:23.000Z,21.62
2018-09-22T17:16:23.000Z,21.63
2018-09-22T17:26:23.000Z,21.61
2018-09-22T17:36:23.000Z,21.58
2018-09-22T17:46:23.000Z,21.54
2018-09-22T17:56:23.000Z,21.53
2018-09-22T18:06:25.000Z,21.49
2018-09-22T18:16:23.000Z,21.46
2018-09-22T18:26:23.000Z,21.45
2018-09-22T18:36:23.000Z,21.4
2018-09-22T18:46:23.000Z,21.39
2018-09-22T18:56:23.000Z,21.32
2018-09-22T19:06:23.000Z,21.27
2018-09-22T19:16:23.000Z,21.22
2018-09-22T19:26:23.000Z,21.16
2018-09-22T19:36:23.000Z,21.11
2018-09-22T19:46:24.000Z,21.07
2018-09-22T19:56:23.000Z,21.04
2018-09-22T20:06:23.000Z,21.01
2018-09-22T20:16:23.000Z,20.97
2018-09-22T20:26:23.000Z,20.96
2018-09-22T20:36:23.000Z,20.93
2018-09-22T20:46:23.000Z,20.89
2018-09-22T20:56:23.000Z,20.87
2018-09-22T21:06:23.000Z,20.85
2018-09-22T21:16:24.000Z,20.82
2018-09-22T21:26:23.000Z,20.8
2018-09-22T21:36:23.000Z,20.79
2018-09-22T21:46:23.000Z,20.76
2018-09-22T21:56:23.000Z,20.74
2018-09-22T22:06:23.000Z,20.71
2018-09-22T22:16:24.000Z,20.68
2018-09-22T22:26:24.000Z,20.66
2018-09-22T22:36:24.000Z,20.64
2018-09-22T22:46:24.000Z,20.61
2018-09-22T22:56:24.000Z,20.6
2018-09-22T23:06:24.000Z,20.58
2018-09-22T23:16:24.000Z,20.56
2018-09-22T23:26:24.000Z,20.54
2018-09-22T23:36:24.000Z,20.53
2018-09-22T23:46:24.000Z,20.51
2018-09-22T23:56:24.000Z,20.49
